Time;durP1;ratioP1;P1;durP2;ratioP2;P2;SDS_P1;SDS_P2;PMS_P1;PMS_P2;Temp;Humidity;BMP_temperature;BMP_pressure;BME280_temperature;BME280_humidity;BME280_pressure;Samples;Min_cycle;Max_cycle;Signal;HPM_P1;HPM_P2
2022/06/29 00:00:50;;;;;;;9.10;8.40;;;;;;;22.78;100.00;99305.50;5103516;27;20314;-78
2022/06/29 00:03:17;;;;;;;9.27;8.48;;;;;;;22.67;100.00;99301.38;5112360;27;20798;-78
2022/06/29 00:05:44;;;;;;;9.60;8.60;;;;;;;22.60;100.00;99303.69;5116926;27;20251;-78
2022/06/29 00:08:10;;;;;;;8.95;8.25;;;;;;;22.59;100.00;99299.34;5118784;27;20225;-78
2022/06/29 00:10:38;;;;;;;9.60;8.85;;;;;;;22.56;100.00;99286.31;5120815;27;20647;-79
2022/06/29 00:13:05;;;;;;;9.45;8.68;;;;;;;22.58;100.00;99286.84;5120431;27;20418;-78
2022/06/29 00:15:31;;;;;;;9.48;8.68;;;;;;;22.53;100.00;99288.84;5122247;27;20314;-78
2022/06/29 00:17:58;;;;;;;8.85;8.00;;;;;;;22.49;100.00;99291.38;5106292;27;20658;-78
2022/06/29 00:20:25;;;;;;;10.52;9.45;;;;;;;22.43;100.00;99283.63;5115312;27;20237;-78
2022/06/29 00:22:51;;;;;;;9.85;8.93;;;;;;;22.35;100.00;99266.81;5108794;27;20261;-78
2022/06/29 00:25:18;;;;;;;9.80;8.93;;;;;;;22.38;100.00;99274.44;5112686;27;20322;-79
2022/06/29 00:27:45;;;;;;;12.40;9.32;;;;;;;22.46;100.00;99272.06;5111618;27;20657;-78
2022/06/29 00:30:12;;;;;;;9.93;9.02;;;;;;;22.39;100.00;99270.59;5117360;27;20219;-79
2022/06/29 00:32:39;;;;;;;10.25;9.27;;;;;;;22.37;100.00;99272.00;5114717;27;20235;-78
2022/06/29 00:35:06;;;;;;;9.85;9.05;;;;;;;22.34;100.00;99262.50;5114908;27;20782;-78
2022/06/29 00:37:33;;;;;;;10.13;9.32;;;;;;;22.32;100.00;99253.00;5115412;27;20233;-79
2022/06/29 00:40:02;;;;;;;10.35;9.45;;;;;;;22.16;100.00;99260.69;5094902;28;20293;-79
2022/06/29 00:42:30;;;;;;;10.48;9.55;;;;;;;22.16;100.00;99254.44;5100391;27;20229;-78
2022/06/29 00:44:57;;;;;;;10.63;9.55;;;;;;;22.16;100.00;99254.44;5117385;27;20233;-80
2022/06/29 00:47:23;;;;;;;10.65;9.65;;;;;;;22.11;100.00;99258.09;5118593;27;20718;-79
2022/06/29 00:49:50;;;;;;;11.20;10.18;;;;;;;22.05;100.00;99256.56;5114130;27;20595;-78
2022/06/29 00:52:20;;;;;;;10.63;9.73;;;;;;;21.98;100.00;99260.81;5111481;27;20329;-79
2022/06/29 00:54:56;;;;;;;10.48;9.55;;;;;;;21.91;100.00;99253.81;5099365;27;20291;-78
2022/06/29 00:57:24;;;;;;;10.30;9.50;;;;;;;21.87;100.00;99247.34;5109793;27;20228;-79
2022/06/29 00:59:57;;;;;;;10.32;9.30;;;;;;;21.84;100.00;99256.09;5125663;27;20311;-78
2022/06/29 01:02:29;;;;;;;9.75;9.05;;;;;;;21.78;100.00;99249.16;5108750;27;20235;-78
2022/06/29 01:04:55;;;;;;;10.85;9.85;;;;;;;21.74;100.00;99242.66;5123657;27;20243;-78
2022/06/29 01:07:24;;;;;;;10.88;9.98;;;;;;;21.70;100.00;99246.31;5109654;27;20262;-78
2022/06/29 01:09:51;;;;;;;11.48;10.43;;;;;;;21.70;100.00;99246.31;5105945;27;20226;-79
2022/06/29 01:12:18;;;;;;;10.60;9.60;;;;;;;21.70;100.00;99255.28;5117927;27;20226;-77
2022/06/29 01:14:47;;;;;;;10.77;9.93;;;;;;;21.71;100.00;99250.66;5114026;27;20230;-79
2022/06/29 01:17:14;;;;;;;10.88;9.88;;;;;;;21.72;100.00;99247.63;5091934;28;20231;-79
2022/06/29 01:19:42;;;;;;;10.35;9.45;;;;;;;21.69;100.00;99248.25;5098332;28;20262;-78
2022/06/29 01:22:20;;;;;;;10.75;9.50;;;;;;;21.70;100.00;99255.28;5116861;27;20258;-78
2022/06/29 01:24:47;;;;;;;10.55;9.60;;;;;;;21.71;100.00;99242.47;5114975;27;20222;-79
2022/06/29 01:27:15;;;;;;;10.10;9.30;;;;;;;21.71;100.00;99250.66;5121809;27;20773;-78
2022/06/29 01:29:43;;;;;;;9.93;9.13;;;;;;;21.68;100.00;99240.34;5101765;27;20258;-78
2022/06/29 01:32:10;;;;;;;10.40;9.45;;;;;;;21.66;100.00;99239.84;5107562;27;20232;-78
2022/06/29 01:34:37;;;;;;;9.82;9.02;;;;;;;21.68;100.00;99245.81;5114114;27;20335;-78
2022/06/29 01:37:05;;;;;;;10.02;9.25;;;;;;;21.65;100.00;99247.22;5109180;27;20257;-78
2022/06/29 01:39:32;;;;;;;10.13;9.32;;;;;;;21.63;100.00;99238.53;5114068;27;20224;-78
2022/06/29 01:41:59;;;;;;;10.77;9.88;;;;;;;21.59;100.00;99242.16;5115412;27;20786;-78
2022/06/29 01:44:26;;;;;;;10.27;9.50;;;;;;;21.55;100.00;99247.41;5120041;27;20645;-79
2022/06/29 01:46:52;;;;;;;10.73;9.85;;;;;;;21.52;100.00;99239.81;5116209;27;20259;-78
2022/06/29 01:49:19;;;;;;;9.88;9.18;;;;;;;21.48;100.00;99238.81;5116151;27;20237;-79
2022/06/29 01:51:46;;;;;;;9.80;9.10;;;;;;;21.44;100.00;99237.78;5117990;27;20270;-79
2022/06/29 01:54:12;;;;;;;10.82;9.93;;;;;;;21.43;100.00;99241.63;5122518;27;20701;-78
2022/06/29 01:56:39;;;;;;;10.50;9.57;;;;;;;21.41;100.00;99238.41;5106672;27;20240;-78
2022/06/29 01:59:05;;;;;;;9.98;9.27;;;;;;;21.39;100.00;99237.88;5110369;27;20280;-78
2022/06/29 02:01:32;;;;;;;10.48;9.57;;;;;;;21.43;100.00;99238.91;5119556;27;20322;-78
2022/06/29 02:03:59;;;;;;;10.35;9.57;;;;;;;21.43;100.00;99244.34;5106261;27;20289;-79
2022/06/29 02:06:26;;;;;;;10.65;9.73;;;;;;;21.40;100.00;99253.94;5100676;27;20256;-78
2022/06/29 02:08:53;;;;;;;10.10;9.20;;;;;;;21.37;100.00;99254.53;5109725;27;20235;-79
2022/06/29 02:11:20;;;;;;;10.07;9.38;;;;;;;21.37;100.00;99261.91;5114362;27;20316;-79
2022/06/29 02:13:46;;;;;;;10.38;9.50;;;;;;;21.36;100.00;99263.84;5106478;27;20352;-78
2022/06/29 02:16:13;;;;;;;10.30;9.50;;;;;;;21.34;100.00;99257.84;5109430;27;20318;-79
2022/06/29 02:18:40;;;;;;;10.02;9.23;;;;;;;21.32;100.00;99254.63;5106765;27;20525;-80
2022/06/29 02:21:06;;;;;;;10.60;9.80;;;;;;;21.33;100.00;99261.69;5091146;28;20313;-78
2022/06/29 02:23:33;;;;;;;10.65;9.85;;;;;;;21.32;100.00;99249.16;5111479;27;20795;-78
2022/06/29 02:26:00;;;;;;;10.30;9.30;;;;;;;21.28;100.00;99258.22;5104767;28;20220;-78
2022/06/29 02:28:26;;;;;;;10.15;9.35;;;;;;;21.26;100.00;99252.28;5089203;28;20241;-78
2022/06/29 02:36:24;;;;;;;10.95;9.98;;;;;;;21.21;100.00;99241.47;5106358;28;20630;-79
2022/06/29 02:38:50;;;;;;;10.00;9.20;;;;;;;21.17;100.00;99235.00;5109289;28;20228;-78
2022/06/29 02:41:17;;;;;;;10.65;9.75;;;;;;;21.17;100.00;99224.13;5102771;28;20226;-78
2022/06/29 02:43:45;;;;;;;10.98;10.07;;;;;;;21.12;100.00;99226.88;5109805;28;20252;-78
2022/06/29 02:46:11;;;;;;;10.60;9.80;;;;;;;21.10;100.00;99228.00;5106297;28;20606;-79
2022/06/29 02:48:38;;;;;;;10.23;9.32;;;;;;;21.04;100.00;99229.16;5106809;28;20220;-79
2022/06/29 02:51:05;;;;;;;11.45;10.30;;;;;;;21.03;100.00;99219.41;5110072;28;20322;-78
2022/06/29 02:53:31;;;;;;;10.85;9.95;;;;;;;21.02;100.00;99216.97;5108052;28;20212;-78
2022/06/29 02:55:58;;;;;;;11.13;10.02;;;;;;;20.98;100.00;99214.03;5103412;28;20315;-79
2022/06/29 02:58:25;;;;;;;11.02;10.13;;;;;;;20.97;100.00;99222.50;5113656;28;20321;-78
2022/06/29 03:00:51;;;;;;;10.55;9.75;;;;;;;20.95;100.00;99211.91;5107440;28;20230;-78
2022/06/29 03:03:18;;;;;;;10.90;9.93;;;;;;;20.92;100.00;99203.53;5108847;28;20243;-80
2022/06/29 03:05:45;;;;;;;10.80;9.90;;;;;;;20.92;100.00;99206.25;5102542;28;20232;-78
2022/06/29 03:08:11;;;;;;;11.18;10.18;;;;;;;20.95;100.00;99214.63;5114193;28;20232;-79
2022/06/29 03:10:38;;;;;;;10.75;9.75;;;;;;;20.98;100.00;99224.13;5121076;27;20312;-79
2022/06/29 03:13:05;;;;;;;11.30;10.40;;;;;;;21.04;100.00;99218.28;5121161;27;20314;-78
2022/06/29 03:15:31;;;;;;;11.48;10.57;;;;;;;21.05;100.00;99209.00;5125754;27;20683;-78
2022/06/29 03:17:58;;;;;;;11.50;10.60;;;;;;;21.07;100.00;99198.63;5122364;27;20314;-79
2022/06/29 03:20:24;;;;;;;11.85;10.95;;;;;;;21.09;100.00;99207.31;5124665;27;20229;-78
2022/06/29 03:22:51;;;;;;;11.07;10.23;;;;;;;21.17;100.00;99200.41;5117411;27;20713;-80
2022/06/29 03:25:18;;;;;;;11.20;10.32;;;;;;;21.25;100.00;99202.44;5125795;27;20244;-80
2022/06/29 03:27:45;;;;;;;12.10;11.05;;;;;;;21.37;100.00;99200.03;5110365;27;20314;-77
2022/06/29 03:30:12;;;;;;;11.35;10.30;;;;;;;21.40;100.00;99202.16;5114370;27;20749;-78
2022/06/29 03:32:39;;;;;;;10.70;9.70;;;;;;;21.49;100.00;99199.56;5121675;27;20227;-78
2022/06/29 03:35:06;;;;;;;11.15;10.13;;;;;;;21.57;100.00;99201.56;5121799;27;20249;-79
2022/06/29 03:37:33;;;;;;;10.45;9.60;;;;;;;21.64;100.00;99206.63;5095859;27;20247;-79
2022/06/29 03:40:00;;;;;;;10.48;9.57;;;;;;;21.71;100.00;99212.47;5115423;27;20225;-78
2022/06/29 03:42:27;;;;;;;11.13;10.18;;;;;;;21.81;100.00;99210.38;5103382;27;20242;-79
2022/06/29 03:44:55;;;;;;;10.45;9.68;;;;;;;21.95;100.00;99211.22;5118407;27;20256;-79
2022/06/29 03:47:22;;;;;;;11.10;10.20;;;;;;;22.05;100.00;99207.47;5107325;28;20769;-79
2022/06/29 03:49:49;;;;;;;10.35;9.55;;;;;;;22.13;100.00;99212.19;5106178;27;20230;-79
2022/06/29 03:52:16;;;;;;;10.45;9.65;;;;;;;22.24;100.00;99216.34;5123617;27;20236;-78
2022/06/29 03:54:43;;;;;;;10.10;9.40;;;;;;;22.34;100.00;99218.84;5115877;27;20330;-79
2022/06/29 03:57:09;;;;;;;9.98;9.23;;;;;;;22.50;100.00;99223.94;5109379;28;20329;-80
2022/06/29 03:59:36;;;;;;;9.93;9.02;;;;;;;22.62;100.00;99227.75;5117120;27;20231;-79
2022/06/29 04:02:03;;;;;;;10.75;9.95;;;;;;;22.69;100.00;99221.88;5114895;27;20318;-79
2022/06/29 04:04:30;;;;;;;11.02;10.00;;;;;;;22.77;100.00;99226.59;5115117;27;20222;-79
2022/06/29 04:06:56;;;;;;;10.57;9.60;;;;;;;23.15;100.00;99237.97;5110783;28;20235;-79
2022/06/29 04:09:23;;;;;;;10.75;9.85;;;;;;;23.40;100.00;99225.59;5104439;28;20251;-80
2022/06/29 04:11:51;;;;;;;9.70;8.90;;;;;;;23.65;100.00;99222.22;5116242;27;20315;-79
2022/06/29 04:14:23;;;;;;;10.32;9.52;;;;;;;23.93;100.00;99225.56;5124521;27;20309;-79
2022/06/29 04:16:51;;;;;;;10.15;9.35;;;;;;;24.19;100.00;99234.66;5115305;27;20234;-78
2022/06/29 04:19:18;;;;;;;9.60;8.80;;;;;;;24.33;100.00;99229.88;5120182;27;20249;-79
2022/06/29 04:21:45;;;;;;;10.18;9.38;;;;;;;24.39;100.00;99238.72;5110809;28;20223;-78
2022/06/29 04:24:12;;;;;;;10.57;9.60;;;;;;;24.38;100.00;99231.63;5099462;27;20232;-79
2022/06/29 04:26:39;;;;;;;9.57;8.90;;;;;;;24.52;100.00;99235.03;5118673;27;20700;-79
2022/06/29 04:29:06;;;;;;;10.45;9.45;;;;;;;24.55;100.00;99226.97;5099581;27;20327;-79
2022/06/29 04:31:33;;;;;;;10.60;9.65;;;;;;;24.54;100.00;99230.06;5120605;27;20231;-79
2022/06/29 04:34:00;;;;;;;10.30;9.40;;;;;;;24.56;100.00;99219.56;5117659;27;20227;-79
2022/06/29 04:36:28;;;;;;;10.52;9.55;;;;;;;24.69;100.00;99226.81;5115681;27;20300;-80
2022/06/29 04:38:55;;;;;;;11.20;9.55;;;;;;;25.03;100.00;99215.06;5100140;27;20709;-79
2022/06/29 04:41:22;;;;;;;10.82;10.02;;;;;;;25.23;100.00;99214.41;5121403;27;20225;-79
2022/06/29 04:43:49;;;;;;;10.18;9.32;;;;;;;25.30;100.00;99222.13;5106434;28;20561;-80
2022/06/29 04:46:19;;;;;;;10.10;9.20;;;;;;;24.96;100.00;99210.06;5094232;27;20519;-79
2022/06/29 04:49:06;;;;;;;10.32;9.52;;;;;;;24.72;100.00;99217.19;5129286;27;20239;-78
2022/06/29 04:51:34;;;;;;;10.40;9.43;;;;;;;24.69;100.00;99218.59;5092453;27;20701;-79
2022/06/29 04:54:01;;;;;;;10.30;9.30;;;;;;;24.65;100.00;99214.09;5118044;27;20214;-78
2022/06/29 04:56:30;;;;;;;10.38;9.38;;;;;;;24.67;100.00;99214.59;5096759;27;20232;-79
2022/06/29 04:58:57;;;;;;;13.40;9.73;;;;;;;24.49;100.00;99220.06;5103635;28;20248;-79
2022/06/29 05:01:25;;;;;;;13.85;10.05;;;;;;;24.77;100.00;99208.78;5107207;28;20234;-79
2022/06/29 05:03:53;;;;;;;13.55;9.85;;;;;;;25.01;100.00;99213.81;5116293;27;20253;-78
2022/06/29 05:06:20;;;;;;;11.77;9.90;;;;;;;25.11;100.00;99214.25;5123334;27;20232;-78
2022/06/29 05:08:50;;;;;;;13.30;9.85;;;;;;;25.27;100.00;99215.34;5126186;27;20333;-78
2022/06/29 05:11:18;;;;;;;10.77;9.43;;;;;;;25.58;100.00;99204.16;5121471;27;20241;-79
2022/06/29 05:13:45;;;;;;;14.02;9.73;;;;;;;25.84;100.00;99199.38;5113437;27;20230;-79
2022/06/29 05:16:12;;;;;;;11.13;8.95;;;;;;;25.97;100.00;99204.94;5081511;27;20924;-79
2022/06/29 05:18:39;;;;;;;9.80;9.00;;;;;;;26.05;100.00;99199.41;5118972;27;20303;-79
2022/06/29 05:21:07;;;;;;;9.35;8.32;;;;;;;26.16;100.00;99216.31;5105527;27;20310;-79
2022/06/29 05:23:33;;;;;;;9.80;8.90;;;;;;;26.38;100.00;99226.22;5112362;27;20709;-78
2022/06/29 05:26:00;;;;;;;16.05;9.70;;;;;;;26.61;100.00;99224.75;5109649;27;20699;-79
2022/06/29 05:28:26;;;;;;;22.73;10.48;;;;;;;26.62;100.00;99221.66;5107790;27;20314;-79
2022/06/29 05:30:53;;;;;;;22.83;10.48;;;;;;;26.46;100.00;99215.16;5112560;27;20227;-79
2022/06/29 05:33:20;;;;;;;26.65;10.73;;;;;;;26.62;100.00;99223.63;5106207;27;20247;-79
2022/06/29 05:35:47;;;;;;;14.43;10.43;;;;;;;27.00;100.00;99224.28;5116216;27;20326;-79
2022/06/29 05:38:13;;;;;;;14.32;10.10;;;;;;;27.43;100.00;99229.38;5104124;27;20241;-79
2022/06/29 05:40:42;;;;;;;11.43;10.18;;;;;;;27.83;100.00;99229.56;5116554;27;20230;-79
2022/06/29 05:43:09;;;;;;;11.30;10.27;;;;;;;28.06;100.00;99223.59;5109631;27;20231;-78
2022/06/29 05:45:35;;;;;;;11.50;10.30;;;;;;;27.77;100.00;99227.34;5108222;27;20234;-80
2022/06/29 05:48:02;;;;;;;11.65;9.70;;;;;;;27.58;100.00;99225.16;5107065;27;20319;-79
2022/06/29 05:50:29;;;;;;;10.90;10.00;;;;;;;27.36;100.00;99223.59;5110292;27;20231;-79
2022/06/29 05:52:55;;;;;;;10.30;9.60;;;;;;;27.43;100.00;99221.09;5119007;27;20314;-78
2022/06/29 05:55:22;;;;;;;10.73;9.73;;;;;;;27.59;100.00;99227.56;5114779;27;20302;-79
2022/06/29 05:57:48;;;;;;;12.23;9.68;;;;;;;27.69;100.00;99214.50;5109169;27;20241;-79
2022/06/29 06:00:15;;;;;;;12.90;10.30;;;;;;;27.77;100.00;99219.91;5108082;27;20314;-79
2022/06/29 06:02:48;;;;;;;10.45;9.55;;;;;;;27.77;100.00;99210.84;5112753;27;20224;-79
2022/06/29 06:05:15;;;;;;;10.10;9.27;;;;;;;28.06;100.00;99218.88;5110733;27;20236;-78
2022/06/29 06:07:41;;;;;;;9.88;9.00;;;;;;;27.89;100.00;99211.66;5096295;28;20602;-79
2022/06/29 06:10:08;;;;;;;10.95;9.95;;;;;;;27.68;100.00;99219.22;5109044;28;20262;-79
2022/06/29 06:12:35;;;;;;;11.30;10.13;;;;;;;27.49;100.00;99202.44;5112179;27;20794;-79
2022/06/29 06:15:02;;;;;;;11.00;9.57;;;;;;;27.24;100.00;99209.03;5113184;27;20223;-80
2022/06/29 06:17:29;;;;;;;11.10;10.10;;;;;;;27.34;100.00;99206.63;5112147;28;20227;-79
2022/06/29 06:20:02;;;;;;;11.27;10.27;;;;;;;27.37;100.00;99197.72;5109732;28;20208;-78
2022/06/29 06:22:29;;;;;;;11.02;10.13;;;;;;;27.32;100.00;99206.16;5116508;27;20306;-80
2022/06/29 06:24:56;;;;;;;10.45;9.40;;;;;;;27.51;100.00;99197.41;5104229;27;20295;-80
2022/06/29 06:27:22;;;;;;;11.75;10.68;;;;;;;27.40;100.00;99199.75;5111148;28;20234;-78
2022/06/29 06:29:49;;;;;;;11.65;10.52;;;;;;;27.41;100.00;99200.56;5115676;28;20277;-79
2022/06/29 06:32:16;;;;;;;11.63;10.68;;;;;;;27.28;100.00;99193.44;5108199;28;20333;-81
2022/06/29 06:34:42;;;;;;;12.70;11.60;;;;;;;27.40;100.00;99201.72;5115682;28;20227;-79
2022/06/29 06:37:09;;;;;;;12.38;11.38;;;;;;;27.39;100.00;99195.41;5107105;28;20735;-80
2022/06/29 06:39:36;;;;;;;11.57;10.48;;;;;;;27.55;100.00;99201.09;5113480;28;20257;-79
2022/06/29 06:42:02;;;;;;;12.35;11.23;;;;;;;27.83;100.00;99206.72;5114407;28;20702;-78
2022/06/29 06:44:29;;;;;;;12.07;11.18;;;;;;;27.67;100.00;99203.84;5115303;27;20656;-80
2022/06/29 06:46:59;;;;;;;12.82;11.85;;;;;;;27.80;100.00;99210.97;5104596;27;20227;-79
2022/06/29 06:49:27;;;;;;;12.68;11.68;;;;;;;27.64;100.00;99207.28;5122270;27;20318;-79
2022/06/29 06:51:53;;;;;;;12.15;11.15;;;;;;;27.85;100.00;99204.44;5121045;27;20226;-79
2022/06/29 06:54:20;;;;;;;11.73;10.93;;;;;;;27.64;100.00;99196.28;5120755;27;20760;-80
2022/06/29 06:56:47;;;;;;;12.25;11.15;;;;;;;27.81;100.00;99195.28;5117015;27;20289;-79
2022/06/29 06:59:13;;;;;;;11.52;10.18;;;;;;;28.18;100.00;99198.84;5115466;27;20287;-79
2022/06/29 07:01:40;;;;;;;13.98;11.13;;;;;;;28.22;100.00;99200.56;5114821;27;20223;-79
2022/06/29 07:04:14;;;;;;;12.23;11.23;;;;;;;28.36;93.63;99191.91;5113338;27;20230;-79
2022/06/29 07:06:41;;;;;;;13.65;11.40;;;;;;;27.91;97.34;99197.53;5117666;27;20226;-79
2022/06/29 07:09:08;;;;;;;12.50;11.40;;;;;;;28.03;95.30;99190.09;5121731;27;20254;-80
2022/06/29 07:11:35;;;;;;;12.68;11.68;;;;;;;28.00;96.91;99201.78;5115649;27;20311;-79
2022/06/29 07:14:01;;;;;;;12.55;11.63;;;;;;;27.94;96.33;99196.88;5121733;27;20334;-79
2022/06/29 07:16:29;;;;;;;12.65;11.68;;;;;;;28.09;95.75;99207.16;5108433;27;20234;-79
2022/06/29 07:18:56;;;;;;;11.63;10.50;;;;;;;28.38;93.44;99192.34;5117226;27;20239;-79
2022/06/29 07:21:23;;;;;;;12.32;11.25;;;;;;;28.58;91.84;99191.38;5119764;27;20228;-79
2022/06/29 07:23:49;;;;;;;12.00;10.65;;;;;;;28.72;86.34;99191.84;5115515;27;20235;-80
2022/06/29 07:26:16;;;;;;;11.48;10.50;;;;;;;28.89;87.39;99185.22;5109016;28;20775;-79
2022/06/29 07:28:43;;;;;;;12.25;11.18;;;;;;;29.00;85.98;99180.81;5112294;27;20287;-79
2022/06/29 07:31:09;;;;;;;11.63;10.45;;;;;;;29.27;84.30;99185.47;5115661;27;20227;-80
2022/06/29 07:33:37;;;;;;;11.65;10.52;;;;;;;29.39;84.25;99178.31;5128098;27;20318;-79
2022/06/29 07:36:03;;;;;;;11.25;10.10;;;;;;;29.38;84.26;99171.19;5119877;27;20742;-80
2022/06/29 07:38:30;;;;;;;11.55;10.55;;;;;;;29.44;84.95;99183.56;5125730;27;20269;-78
2022/06/29 07:40:58;;;;;;;12.23;11.02;;;;;;;29.55;82.52;99174.41;5123838;27;20250;-81
2022/06/29 07:43:25;;;;;;;11.63;10.63;;;;;;;29.52;84.37;99163.28;5127879;27;20240;-79
2022/06/29 07:45:52;;;;;;;11.65;10.60;;;;;;;29.50;83.48;99165.56;5117733;27;20259;-78
2022/06/29 07:48:19;;;;;;;10.55;9.77;;;;;;;29.72;82.90;99167.72;5116499;27;20235;-79
2022/06/29 07:50:45;;;;;;;11.40;10.40;;;;;;;29.74;82.52;99157.91;5106133;28;20291;-79
2022/06/29 07:53:12;;;;;;;11.18;10.27;;;;;;;29.96;81.26;99156.47;5119953;28;20254;-80
2022/06/29 07:55:39;;;;;;;12.10;9.52;;;;;;;30.05;80.52;99154.31;5117812;28;20267;-80
2022/06/29 07:58:06;;;;;;;11.52;10.25;;;;;;;30.06;81.80;99146.84;5116648;28;20587;-80
2022/06/29 08:00:33;;;;;;;14.43;9.93;;;;;;;29.90;83.33;99149.66;5115640;28;20226;-79
2022/06/29 08:03:00;;;;;;;10.77;9.88;;;;;;;30.38;77.46;99142.00;5118478;28;20332;-78
2022/06/29 08:05:27;;;;;;;10.55;9.52;;;;;;;30.08;77.97;99139.00;5112785;28;20233;-79
2022/06/29 08:07:54;;;;;;;10.07;9.13;;;;;;;30.56;74.28;99143.25;5106554;28;20228;-81
2022/06/29 08:10:21;;;;;;;10.07;9.18;;;;;;;30.93;68.94;99144.38;5108189;28;20627;-79
2022/06/29 08:12:47;;;;;;;10.63;9.65;;;;;;;31.30;64.74;99141.91;5097541;28;20730;-80
2022/06/29 08:15:17;;;;;;;12.20;8.65;;;;;;;31.88;63.05;99134.16;5094722;28;20741;-79
2022/06/29 08:17:44;;;;;;;9.95;8.98;;;;;;;32.14;61.92;99138.16;5117417;28;20215;-80
2022/06/29 08:20:11;;;;;;;9.35;8.43;;;;;;;32.70;59.09;99141.69;5112916;28;20229;-80
2022/06/29 08:22:38;;;;;;;9.95;9.13;;;;;;;32.84;57.60;99141.03;5117795;28;20641;-79
2022/06/29 08:25:05;;;;;;;9.90;9.00;;;;;;;32.62;55.00;99128.84;5108472;28;20600;-80
2022/06/29 08:27:33;;;;;;;9.75;8.82;;;;;;;32.47;57.35;99131.84;5113275;28;20636;-80
2022/06/29 08:30:11;;;;;;;9.35;8.45;;;;;;;33.05;55.65;99132.13;5100507;28;20227;-79
2022/06/29 08:32:40;;;;;;;10.63;9.63;;;;;;;32.83;54.58;99130.31;5111042;28;20248;-80
2022/06/29 08:35:07;;;;;;;10.20;9.35;;;;;;;32.68;54.89;99132.13;5111948;28;20239;-80
2022/06/29 08:37:36;;;;;;;9.32;8.50;;;;;;;33.35;52.97;99124.53;5111532;28;20606;-80
2022/06/29 08:40:08;;;;;;;10.18;9.13;;;;;;;33.33;53.52;99126.88;5115210;28;20241;-80
2022/06/29 08:42:36;;;;;;;9.75;8.85;;;;;;;33.58;52.75;99124.31;5095793;28;20269;-80
2022/06/29 08:45:13;;;;;;;9.63;8.65;;;;;;;33.39;54.22;99125.34;5094931;28;20295;-80
2022/06/29 08:47:41;;;;;;;10.18;9.10;;;;;;;33.78;50.63;99119.34;5071692;28;1215954;-79
2022/06/29 08:50:10;;;;;;;9.10;8.30;;;;;;;34.03;53.91;99121.09;5111597;27;20691;-80
2022/06/29 08:52:38;;;;;;;8.25;7.47;;;;;;;33.93;50.20;99116.25;5114358;27;20738;-80
2022/06/29 08:55:07;;;;;;;8.05;7.13;;;;;;;34.21;48.84;99120.41;5120986;27;20262;-80
2022/06/29 08:57:36;;;;;;;7.88;7.15;;;;;;;34.23;48.00;99118.84;5103548;28;20314;-79
2022/06/29 09:00:04;;;;;;;8.40;7.15;;;;;;;34.79;46.26;99112.72;5093475;28;20273;-80
2022/06/29 09:02:31;;;;;;;7.97;7.28;;;;;;;35.43;43.29;99112.84;5108816;27;20243;-79
2022/06/29 09:04:58;;;;;;;7.45;6.68;;;;;;;35.68;42.78;99110.06;5117383;27;20243;-79
2022/06/29 09:07:25;;;;;;;8.02;7.38;;;;;;;35.91;42.81;99104.06;5116551;27;20253;-80
2022/06/29 09:10:01;;;;;;;8.77;7.43;;;;;;;36.17;40.91;99100.81;5117904;27;20239;-79
2022/06/29 09:12:29;;;;;;;7.75;6.95;;;;;;;35.85;41.94;99100.09;5117078;27;20215;-81
2022/06/29 09:14:56;;;;;;;10.38;7.63;;;;;;;35.35;42.94;99097.31;5103821;27;20317;-79
2022/06/29 09:17:23;;;;;;;7.65;7.05;;;;;;;35.79;43.60;99105.25;5119030;27;20276;-79
2022/06/29 09:19:53;;;;;;;7.63;7.03;;;;;;;35.77;42.73;99102.09;5115880;27;20254;-80
2022/06/29 09:22:41;;;;;;;7.43;6.75;;;;;;;34.43;45.92;99095.09;5119305;27;20262;-80
2022/06/29 09:25:29;;;;;;;7.68;6.97;;;;;;;34.17;47.70;99100.09;5097235;28;20322;-79
2022/06/29 09:27:56;;;;;;;8.35;7.22;;;;;;;34.46;45.09;99085.97;5118232;27;20223;-80
2022/06/29 09:30:26;;;;;;;8.05;6.75;;;;;;;34.19;46.45;99093.00;5117268;27;20227;-79
2022/06/29 09:33:01;;;;;;;8.35;6.57;;;;;;;34.54;47.01;99085.97;5111903;27;20349;-79
2022/06/29 09:35:28;;;;;;;7.78;7.00;;;;;;;34.50;45.66;99083.19;5107163;27;20232;-81
2022/06/29 09:38:24;;;;;;;7.22;6.53;;;;;;;35.02;44.25;99069.81;5115014;27;20294;-80
2022/06/29 09:41:13;;;;;;;5.40;4.72;;;;;;;34.95;41.34;99067.81;5108026;28;20230;-80
2022/06/29 09:43:42;;;;;;;4.80;4.40;;;;;;;35.12;39.26;99063.47;5118742;27;20236;-79
2022/06/29 09:46:10;;;;;;;4.80;4.40;;;;;;;35.58;39.00;99074.63;5110516;27;20236;-80
2022/06/29 09:48:39;;;;;;;5.97;4.50;;;;;;;35.83;39.68;99075.44;5104520;27;20223;-80
2022/06/29 09:53:54;;;;;;;5.68;5.10;;;;;;;35.91;38.93;99074.19;5117937;27;20231;-80
2022/06/29 09:56:22;;;;;;;6.15;5.22;;;;;;;36.27;37.71;99071.31;5119732;27;20272;-80
2022/06/29 09:58:49;;;;;;;4.72;4.30;;;;;;;36.19;36.10;99074.13;5121930;27;20311;-80
2022/06/29 10:04:10;;;;;;;5.50;4.70;;;;;;;36.26;36.32;99064.16;5105284;27;20328;-80
2022/06/29 10:06:37;;;;;;;5.10;4.60;;;;;;;36.10;36.45;99070.97;5116272;27;20220;-80
2022/06/29 10:09:04;;;;;;;6.28;4.60;;;;;;;35.99;36.33;99064.59;5118069;27;20724;-79
2022/06/29 10:14:46;;;;;;;5.07;4.40;;;;;;;35.93;35.40;99065.44;5122485;27;20221;-80
2022/06/29 10:17:32;;;;;;;6.50;4.40;;;;;;;36.13;34.75;99058.22;5099205;28;20219;-80
2022/06/29 10:20:28;;;;;;;4.75;4.22;;;;;;;36.48;33.51;99060.06;5111142;28;20242;-80
2022/06/29 10:22:55;;;;;;;5.00;4.50;;;;;;;36.77;33.42;99058.72;5110788;27;20290;-81
2022/06/29 10:25:27;;;;;;;5.93;4.57;;;;;;;37.01;34.24;99046.59;5107994;28;20737;-79
2022/06/29 10:28:19;;;;;;;5.53;4.40;;;;;;;37.42;33.03;99046.66;5093974;28;20693;-80
2022/06/29 10:30:46;;;;;;;7.30;4.32;;;;;;;37.89;32.45;99042.22;5087399;28;20646;-79
2022/06/29 10:33:28;;;;;;;4.72;4.32;;;;;;;37.94;32.08;99037.41;5123240;28;20261;-80
2022/06/29 10:36:03;;;;;;;5.28;4.80;;;;;;;37.78;31.83;99030.38;5115334;28;20235;-80
2022/06/29 10:38:31;;;;;;;6.53;4.70;;;;;;;37.38;32.48;99026.34;5112473;28;20754;-80
2022/06/29 10:43:07;;;;;;;5.55;4.78;;;;;;;37.10;34.40;99029.38;5092362;28;20310;-80
2022/06/29 10:43:57;;;;;;;7.57;4.47;;;;;;;36.45;36.12;99025.41;5116282;28;20231;-81
2022/06/29 10:46:23;;;;;;;5.43;4.93;;;;;;;36.67;33.92;99022.53;5116755;28;20318;-80
2022/06/29 10:49:15;;;;;;;6.00;4.78;;;;;;;36.85;33.47;99025.97;5120704;28;20770;-80
2022/06/29 10:51:42;;;;;;;5.93;4.78;;;;;;;36.93;33.67;99024.72;5111870;28;20235;-80
2022/06/29 10:54:32;;;;;;;6.75;4.55;;;;;;;36.65;33.03;99022.94;5098230;28;20228;-80
2022/06/29 10:56:59;;;;;;;6.20;4.40;;;;;;;36.90;33.74;99015.19;5118222;28;20250;-80
2022/06/29 10:59:36;;;;;;;8.00;4.40;;;;;;;37.07;33.02;99015.47;5108294;28;20338;-81
2022/06/29 11:02:13;;;;;;;5.43;4.28;;;;;;;37.07;32.47;99012.66;5099878;28;20618;-80
2022/06/29 11:04:41;;;;;;;4.93;3.90;;;;;;;37.05;32.87;99001.88;5104395;28;20288;-81
2022/06/29 11:12:54;;;;;;;5.43;4.03;;;;;;;36.65;31.79;98989.44;5120664;28;20259;-81
2022/06/29 11:15:44;;;;;;;5.97;4.10;;;;;;;37.07;32.88;98979.16;5113348;28;20224;-80
2022/06/29 11:18:17;;;;;;;4.80;3.97;;;;;;;37.40;32.30;98973.66;5097906;28;20235;-81
2022/06/29 11:20:45;;;;;;;5.05;4.60;;;;;;;37.39;31.32;98972.06;5098252;28;20211;-81
2022/06/29 11:23:19;;;;;;;4.80;4.30;;;;;;;37.52;31.12;98974.34;5113632;28;20272;-80
2022/06/29 11:25:48;;;;;;;5.70;4.50;;;;;;;37.68;31.88;98955.03;5099718;28;20520;-80
2022/06/29 11:28:17;;;;;;;5.25;4.70;;;;;;;37.55;31.88;98957.56;5100567;28;20237;-80
2022/06/29 11:31:10;;;;;;;4.70;4.30;;;;;;;37.46;30.51;98949.66;5093920;28;20763;-81
2022/06/29 11:33:41;;;;;;;3.90;3.60;;;;;;;37.28;29.69;98953.84;5096080;27;20230;-80
2022/06/29 11:36:15;;;;;;;4.18;3.75;;;;;;;37.69;29.66;98948.22;5114622;27;20232;-80
2022/06/29 11:38:44;;;;;;;4.32;3.85;;;;;;;38.09;29.21;98946.53;5114447;27;20247;-80
2022/06/29 11:41:12;;;;;;;4.65;4.22;;;;;;;38.25;29.47;98941.13;5113586;27;20319;-80
2022/06/29 11:44:27;;;;;;;5.32;4.20;;;;;;;38.43;29.30;98927.69;5109022;27;20249;-80
2022/06/29 11:46:55;;;;;;;5.07;4.30;;;;;;;38.80;29.15;98921.09;5096158;27;20230;-80
2022/06/29 11:49:36;;;;;;;4.60;4.20;;;;;;;38.53;28.21;98928.75;5114002;27;20238;-80